Time;durP1;ratioP1;P1;durP2;ratioP2;P2;SDS_P1;SDS_P2;PMS_P1;PMS_P2;Temp;Humidity;BMP_temperature;BMP_pressure;BME280_temperature;BME280_humidity;BME280_pressure;Samples;Min_cycle;Max_cycle;Signal;HPM_P1;HPM_P2
2023/10/25 00:00:31;;;;;;;8.48;6.40;;;11.10;70.50;;;;;;5017734;28;20502;-52
2023/10/25 00:02:58;;;;;;;7.53;6.47;;;11.10;70.60;;;;;;5019500;28;20061;-48
2023/10/25 00:05:25;;;;;;;9.80;6.38;;;11.10;70.70;;;;;;5020343;28;20413;-46
2023/10/25 00:07:53;;;;;;;6.53;5.75;;;11.10;70.80;;;;;;5020334;28;20052;-49
2023/10/25 00:10:22;;;;;;;11.10;7.10;;;11.20;71.00;;;;;;5020412;28;20057;-46
2023/10/25 00:12:49;;;;;;;9.23;5.97;;;11.20;71.10;;;;;;5018933;28;20046;-49
2023/10/25 00:15:17;;;;;;;10.27;6.45;;;11.20;71.10;;;;;;5019526;28;20472;-49
2023/10/25 00:17:44;;;;;;;9.15;5.60;;;11.20;71.10;;;;;;5020112;28;20057;-50
2023/10/25 00:20:11;;;;;;;6.85;4.90;;;11.20;71.00;;;;;;5018282;28;20053;-48
2023/10/25 00:22:38;;;;;;;8.10;4.78;;;11.20;70.90;;;;;;5017686;28;20049;-49
2023/10/25 00:25:07;;;;;;;10.48;5.18;;;11.20;70.70;;;;;;5018501;28;20057;-48
2023/10/25 00:27:35;;;;;;;10.70;5.85;;;11.20;70.80;;;;;;5017931;28;20390;-49
2023/10/25 00:30:02;;;;;;;6.25;5.25;;;11.20;70.80;;;;;;5017949;28;20438;-49
2023/10/25 00:32:30;;;;;;;9.73;7.00;;;11.30;70.90;;;;;;5018274;28;20045;-50
2023/10/25 00:34:57;;;;;;;10.48;6.47;;;11.30;70.90;;;;;;5018068;28;20056;-51
2023/10/25 00:37:25;;;;;;;10.70;6.85;;;11.30;70.90;;;;;;5018303;28;20046;-50
2023/10/25 00:39:53;;;;;;;11.90;7.60;;;11.30;70.90;;;;;;5018421;28;20061;-52
2023/10/25 00:42:21;;;;;;;10.35;7.25;;;11.30;70.80;;;;;;5018928;28;20053;-48
2023/10/25 00:44:49;;;;;;;10.88;8.15;;;11.30;70.90;;;;;;5017457;28;20065;-48
2023/10/25 00:47:16;;;;;;;10.48;8.30;;;11.30;70.90;;;;;;5017695;28;20072;-51
2023/10/25 00:49:44;;;;;;;11.38;7.55;;;11.30;70.90;;;;;;5018984;28;20052;-50
2023/10/25 00:52:11;;;;;;;12.55;8.70;;;11.30;71.00;;;;;;5018100;28;20057;-48
2023/10/25 00:54:39;;;;;;;9.82;8.15;;;11.30;71.10;;;;;;5016834;28;20061;-49
2023/10/25 00:57:06;;;;;;;11.30;8.40;;;11.30;71.10;;;;;;5018147;28;20061;-51
2023/10/25 00:59:34;;;;;;;10.85;8.20;;;11.30;71.20;;;;;;5015867;28;20053;-51
2023/10/25 01:02:04;;;;;;;12.10;8.63;;;11.30;71.30;;;;;;5017867;28;20045;-50
2023/10/25 01:04:31;;;;;;;12.32;9.00;;;11.30;71.30;;;;;;5017835;28;20057;-47
2023/10/25 01:06:58;;;;;;;11.40;8.73;;;11.30;71.30;;;;;;5017124;28;20049;-51
2023/10/25 01:09:25;;;;;;;10.15;7.75;;;11.40;71.30;;;;;;5016916;28;20402;-46
2023/10/25 01:11:53;;;;;;;11.75;7.82;;;11.40;71.30;;;;;;5016943;28;20060;-49
2023/10/25 01:14:20;;;;;;;10.60;7.88;;;11.40;71.20;;;;;;5017944;28;20064;-48
2023/10/25 01:16:48;;;;;;;9.50;7.65;;;11.40;71.20;;;;;;5017816;28;20053;-47
2023/10/25 01:19:16;;;;;;;9.10;7.28;;;11.40;71.10;;;;;;5016653;28;20151;-49
2023/10/25 01:21:43;;;;;;;10.43;7.85;;;11.40;71.00;;;;;;5018634;28;20049;-51
2023/10/25 01:24:12;;;;;;;9.80;7.00;;;11.40;71.00;;;;;;5016372;28;20057;-48
2023/10/25 01:26:41;;;;;;;8.55;7.15;;;11.40;71.10;;;;;;5017959;28;20049;-49
2023/10/25 01:29:08;;;;;;;9.85;7.28;;;11.40;71.10;;;;;;5018065;28;20052;-50
2023/10/25 01:31:35;;;;;;;9.57;6.65;;;11.40;71.10;;;;;;5016561;28;20052;-45
2023/10/25 01:34:03;;;;;;;9.23;6.95;;;11.50;71.20;;;;;;5016986;28;20057;-50
2023/10/25 01:36:30;;;;;;;12.10;6.80;;;11.50;71.10;;;;;;5015852;28;20056;-46
2023/10/25 01:38:57;;;;;;;8.40;6.32;;;11.50;71.20;;;;;;5017222;28;20049;-48
2023/10/25 01:41:26;;;;;;;8.10;6.70;;;11.50;71.20;;;;;;5017007;28;20045;-47
2023/10/25 01:43:53;;;;;;;14.88;6.63;;;11.50;71.10;;;;;;5018157;28;20064;-46
2023/10/25 01:46:21;;;;;;;8.50;5.95;;;11.50;71.10;;;;;;5015852;28;20061;-50
2023/10/25 01:48:48;;;;;;;7.82;5.63;;;11.50;71.00;;;;;;5018434;28;20057;-50
2023/10/25 01:51:15;;;;;;;10.95;6.47;;;11.50;71.00;;;;;;5022586;28;20391;-47
2023/10/25 01:53:42;;;;;;;7.93;6.25;;;11.50;70.90;;;;;;5020805;28;20060;-47
2023/10/25 01:56:09;;;;;;;9.85;6.60;;;11.50;70.80;;;;;;5023366;28;20068;-51
2023/10/25 01:58:38;;;;;;;13.57;6.22;;;11.50;70.60;;;;;;5022527;28;20049;-48
2023/10/25 02:01:06;;;;;;;10.25;6.72;;;11.50;70.50;;;;;;5022856;28;20049;-48
2023/10/25 02:03:33;;;;;;;11.10;6.75;;;11.50;70.40;;;;;;5022340;28;20057;-50
2023/10/25 02:06:10;;;;;;;10.25;7.53;;;11.50;70.40;;;;;;5023767;28;20081;-52
2023/10/25 02:08:37;;;;;;;8.48;6.50;;;11.50;70.30;;;;;;5023503;28;20041;-51
2023/10/25 02:11:05;;;;;;;8.85;6.47;;;11.50;70.20;;;;;;5023206;28;20060;-50
2023/10/25 02:13:32;;;;;;;8.32;6.20;;;11.50;70.00;;;;;;5022065;28;20518;-46
2023/10/25 02:16:10;;;;;;;8.13;5.97;;;11.40;69.90;;;;;;5022423;28;20060;-48
2023/10/25 02:18:38;;;;;;;8.45;6.50;;;11.40;69.80;;;;;;5023113;28;20414;-51
2023/10/25 02:21:05;;;;;;;10.43;6.20;;;11.40;69.80;;;;;;5023585;28;20050;-45
2023/10/25 02:23:32;;;;;;;7.10;5.82;;;11.40;69.80;;;;;;5022307;28;20065;-44
2023/10/25 02:25:59;;;;;;;8.48;5.95;;;11.30;69.80;;;;;;5022596;28;20056;-46
2023/10/25 02:28:26;;;;;;;9.50;5.90;;;11.30;69.90;;;;;;5023436;28;20053;-46
2023/10/25 02:30:54;;;;;;;8.90;5.93;;;11.30;69.90;;;;;;5022756;28;20414;-43
2023/10/25 02:33:22;;;;;;;9.93;5.85;;;11.30;70.00;;;;;;5022753;28;20064;-43
2023/10/25 02:35:49;;;;;;;8.63;6.53;;;11.30;70.10;;;;;;5022316;28;20052;-43
2023/10/25 02:38:17;;;;;;;14.55;6.07;;;11.20;70.10;;;;;;5022102;28;20053;-45
2023/10/25 02:40:44;;;;;;;9.57;7.07;;;11.20;70.30;;;;;;5022329;28;20045;-44
2023/10/25 02:43:11;;;;;;;13.32;7.40;;;11.20;70.40;;;;;;5020910;28;20052;-44
2023/10/25 02:45:38;;;;;;;8.93;6.78;;;11.20;70.50;;;;;;5022638;28;20076;-46
2023/10/25 02:48:12;;;;;;;10.40;6.93;;;11.20;70.40;;;;;;5022423;28;20067;-43
2023/10/25 02:50:41;;;;;;;10.57;6.70;;;11.20;70.40;;;;;;5020380;28;20494;-48
2023/10/25 02:53:08;;;;;;;17.92;7.57;;;11.10;70.40;;;;;;5022148;28;21998;-44
2023/10/25 02:55:36;;;;;;;10.85;7.85;;;11.10;70.30;;;;;;5023118;28;20053;-45
2023/10/25 02:58:03;;;;;;;11.35;7.35;;;11.10;70.40;;;;;;5022232;28;20049;-47
2023/10/25 03:00:31;;;;;;;12.18;8.20;;;11.10;70.60;;;;;;5020262;28;20417;-46
2023/10/25 03:02:58;;;;;;;10.73;7.88;;;11.10;70.80;;;;;;5022238;28;20421;-43
2023/10/25 03:05:25;;;;;;;10.18;7.25;;;11.10;70.90;;;;;;5022456;28;20053;-44
2023/10/25 03:07:54;;;;;;;10.82;7.35;;;11.10;71.00;;;;;;5022607;28;20102;-44
2023/10/25 03:10:21;;;;;;;11.93;7.95;;;11.10;71.00;;;;;;5021323;28;20543;-44
2023/10/25 03:12:49;;;;;;;11.55;7.15;;;11.10;70.90;;;;;;5020184;28;20056;-45
2023/10/25 03:15:16;;;;;;;15.45;8.45;;;11.10;71.00;;;;;;5022770;28;20072;-45
2023/10/25 03:17:43;;;;;;;11.18;8.00;;;11.10;71.10;;;;;;5023226;28;20049;-45
2023/10/25 03:20:12;;;;;;;9.90;7.72;;;11.10;71.10;;;;;;5022160;28;20053;-44
2023/10/25 03:22:39;;;;;;;10.93;7.53;;;11.10;71.10;;;;;;5020518;28;20046;-43
2023/10/25 03:25:09;;;;;;;11.40;7.63;;;11.10;71.10;;;;;;5022214;28;20061;-46
2023/10/25 03:27:36;;;;;;;14.15;8.55;;;11.10;71.10;;;;;;5021091;28;20406;-44
2023/10/25 03:30:03;;;;;;;14.35;8.00;;;11.10;71.00;;;;;;5019245;28;20057;-44
2023/10/25 03:32:31;;;;;;;13.52;7.90;;;11.10;71.10;;;;;;5019359;28;20052;-44
2023/10/25 03:34:58;;;;;;;11.73;8.18;;;11.10;71.00;;;;;;5020385;28;20054;-46
2023/10/25 03:37:25;;;;;;;12.18;8.13;;;11.10;71.00;;;;;;5022059;28;20049;-45
2023/10/25 03:39:53;;;;;;;14.27;8.40;;;11.20;71.10;;;;;;5020887;28;20045;-46
2023/10/25 03:42:21;;;;;;;13.93;7.43;;;11.20;71.10;;;;;;5020258;28;20057;-43
2023/10/25 03:44:48;;;;;;;11.07;7.90;;;11.20;71.00;;;;;;5022149;28;20053;-46
2023/10/25 03:47:16;;;;;;;11.27;7.78;;;11.10;70.90;;;;;;5020390;28;20057;-43
2023/10/25 03:49:43;;;;;;;10.35;6.72;;;11.20;71.00;;;;;;5020029;28;20049;-44
2023/10/25 03:52:11;;;;;;;11.88;7.72;;;11.20;70.90;;;;;;5019472;28;20077;-44
2023/10/25 03:54:38;;;;;;;9.23;7.15;;;11.20;70.80;;;;;;5021179;28;20060;-46
2023/10/25 03:57:06;;;;;;;10.75;7.47;;;11.10;70.80;;;;;;5021946;28;20053;-45
2023/10/25 03:59:34;;;;;;;12.18;7.85;;;11.20;70.70;;;;;;5021344;28;20048;-43
2023/10/25 04:02:01;;;;;;;15.35;7.63;;;11.10;70.70;;;;;;5019760;28;21144;-44
2023/10/25 04:04:29;;;;;;;9.23;7.32;;;11.10;70.80;;;;;;5019677;28;20061;-46
2023/10/25 04:06:57;;;;;;;13.85;7.57;;;11.10;70.90;;;;;;5021896;28;20064;-44
2023/10/25 04:09:24;;;;;;;13.90;6.90;;;11.10;71.10;;;;;;5021584;28;20061;-46
2023/10/25 04:11:51;;;;;;;10.10;6.70;;;11.10;71.20;;;;;;5019075;28;20429;-45
2023/10/25 04:14:19;;;;;;;11.85;5.90;;;11.10;71.30;;;;;;5020617;28;20073;-44
2023/10/25 04:16:47;;;;;;;10.18;5.90;;;11.20;71.40;;;;;;5018081;28;20061;-47
2023/10/25 04:19:15;;;;;;;16.10;6.13;;;11.10;71.50;;;;;;5018247;28;20061;-43
2023/10/25 04:21:42;;;;;;;7.53;5.03;;;11.10;71.60;;;;;;5020845;28;20057;-45
2023/10/25 04:24:10;;;;;;;9.50;4.80;;;11.10;71.60;;;;;;5016906;28;20057;-44
2023/10/25 04:26:37;;;;;;;9.02;5.72;;;11.20;71.70;;;;;;5017981;28;20417;-46
2023/10/25 04:29:04;;;;;;;7.05;4.80;;;11.20;71.70;;;;;;5021573;28;20060;-47
2023/10/25 04:31:32;;;;;;;8.82;5.50;;;11.20;71.80;;;;;;5017772;28;20064;-43
2023/10/25 04:34:00;;;;;;;10.55;6.63;;;11.20;71.80;;;;;;5016780;28;20743;-46
2023/10/25 04:36:27;;;;;;;9.13;6.65;;;11.20;71.70;;;;;;5021069;28;20060;-43
2023/10/25 04:38:54;;;;;;;11.60;6.40;;;11.20;71.60;;;;;;5022787;28;20072;-43
2023/10/25 04:41:22;;;;;;;7.95;6.07;;;11.20;71.30;;;;;;5018942;28;20068;-47
2023/10/25 04:43:49;;;;;;;10.20;6.18;;;11.20;71.20;;;;;;5018846;28;20069;-49
2023/10/25 04:46:16;;;;;;;7.53;5.50;;;11.20;71.10;;;;;;5016642;28;20061;-49
2023/10/25 04:48:44;;;;;;;8.77;5.38;;;11.20;71.10;;;;;;5017914;28;20053;-51
2023/10/25 04:51:14;;;;;;;7.90;5.20;;;11.20;71.20;;;;;;5018820;28;20061;-46
2023/10/25 04:53:41;;;;;;;9.52;4.88;;;11.20;71.30;;;;;;5018094;28;20053;-49
2023/10/25 04:56:08;;;;;;;6.95;4.85;;;11.20;71.30;;;;;;5020904;28;20056;-50
2023/10/25 04:58:36;;;;;;;9.63;5.22;;;11.20;71.30;;;;;;5016814;28;20060;-52
2023/10/25 05:01:12;;;;;;;9.10;5.43;;;11.20;71.30;;;;;;5019342;28;20061;-50
2023/10/25 05:03:39;;;;;;;11.88;5.85;;;11.20;71.20;;;;;;5018338;28;20414;-49
2023/10/25 05:06:08;;;;;;;7.80;5.53;;;11.20;71.20;;;;;;5020093;28;20517;-46
2023/10/25 05:08:37;;;;;;;8.68;5.32;;;11.20;71.10;;;;;;5021039;28;20445;-47
2023/10/25 05:11:06;;;;;;;8.93;5.40;;;11.20;71.00;;;;;;5018146;28;20045;-48
2023/10/25 05:13:34;;;;;;;6.82;5.57;;;11.20;70.80;;;;;;5018968;28;20053;-48
2023/10/25 05:16:04;;;;;;;9.23;5.30;;;11.30;70.80;;;;;;5012684;28;20061;-48
2023/10/25 05:18:31;;;;;;;5.50;4.05;;;11.20;70.70;;;;;;4999889;28;20502;-46
2023/10/25 05:21:00;;;;;;;6.68;4.82;;;11.20;70.70;;;;;;5000282;28;20046;-51
2023/10/25 05:23:29;;;;;;;7.53;4.15;;;11.20;70.50;;;;;;5000172;28;20062;-46
2023/10/25 05:25:58;;;;;;;6.88;4.60;;;11.20;70.50;;;;;;5000104;28;20061;-49
2023/10/25 05:28:26;;;;;;;8.43;5.10;;;11.20;70.50;;;;;;4999060;28;20073;-49
2023/10/25 05:30:55;;;;;;;7.88;4.90;;;11.20;70.40;;;;;;4997711;28;20060;-47
2023/10/25 05:33:25;;;;;;;6.35;4.68;;;11.20;70.30;;;;;;4998815;28;20084;-46
2023/10/25 05:35:52;;;;;;;8.93;5.30;;;11.20;70.30;;;;;;4999816;28;20061;-49
2023/10/25 05:38:20;;;;;;;7.13;4.38;;;11.20;70.20;;;;;;5001529;28;20058;-48
2023/10/25 05:40:49;;;;;;;9.20;4.10;;;11.20;70.20;;;;;;4998342;28;20057;-48
2023/10/25 05:43:22;;;;;;;9.32;4.45;;;11.20;70.20;;;;;;4997157;28;20130;-51
2023/10/25 05:45:50;;;;;;;20.92;12.02;;;11.20;70.20;;;;;;4999809;28;20054;-48
2023/10/25 05:48:17;;;;;;;18.88;10.32;;;11.20;70.20;;;;;;4997766;28;20999;-51
2023/10/25 05:50:47;;;;;;;10.25;5.00;;;11.20;70.20;;;;;;5000465;28;20050;-47
2023/10/25 05:53:15;;;;;;;7.40;3.70;;;11.20;70.20;;;;;;4999261;28;20062;-50
2023/10/25 05:55:43;;;;;;;6.28;3.53;;;11.20;71.00;;;;;;4999717;28;20058;-47
2023/10/25 05:58:11;;;;;;;6.47;4.05;;;11.20;70.20;;;;;;4997644;28;20407;-50
2023/10/25 06:00:40;;;;;;;7.00;3.53;;;11.20;70.20;;;;;;4998148;28;20092;-48
2023/10/25 06:03:09;;;;;;;6.05;3.75;;;11.20;70.10;;;;;;4995426;28;21740;-50
2023/10/25 06:05:37;;;;;;;6.85;3.95;;;11.10;70.00;;;;;;4998513;28;20419;-51
2023/10/25 06:08:05;;;;;;;118.55;45.35;;;11.10;69.90;;;;;;4997002;28;20054;-47
2023/10/25 06:10:33;;;;;;;27.80;12.95;;;11.10;69.90;;;;;;4996032;28;20054;-49
2023/10/25 06:13:00;;;;;;;13.90;5.47;;;11.10;69.90;;;;;;4998707;28;20057;-49
2023/10/25 06:15:28;;;;;;;8.48;4.22;;;11.10;69.80;;;;;;4997543;28;20062;-47
2023/10/25 06:17:56;;;;;;;6.43;3.85;;;11.10;69.80;;;;;;4997361;28;20060;-51
2023/10/25 06:20:23;;;;;;;8.13;3.67;;;11.10;69.70;;;;;;4997787;28;20046;-48
2023/10/25 06:22:51;;;;;;;5.75;4.00;;;11.10;69.70;;;;;;4998593;28;20046;-50
2023/10/25 06:25:18;;;;;;;6.45;3.35;;;11.10;69.70;;;;;;4998982;28;20370;-47
2023/10/25 06:27:45;;;;;;;11.07;3.28;;;11.10;69.80;;;;;;4996127;28;20053;-47
2023/10/25 06:30:13;;;;;;;6.93;3.17;;;11.10;69.80;;;;;;4996136;28;20062;-49
2023/10/25 06:32:41;;;;;;;5.63;3.47;;;11.10;69.90;;;;;;4997921;28;20533;-51
2023/10/25 06:35:10;;;;;;;7.88;3.45;;;11.10;70.00;;;;;;4999078;28;20068;-47
2023/10/25 06:37:37;;;;;;;6.13;2.60;;;11.10;70.00;;;;;;5001559;28;20065;-52
2023/10/25 06:40:06;;;;;;;6.50;2.80;;;11.10;70.00;;;;;;5002587;28;20394;-51
2023/10/25 06:42:34;;;;;;;4.93;2.80;;;11.10;70.10;;;;;;5001898;28;20501;-49
2023/10/25 06:45:02;;;;;;;7.60;2.70;;;11.10;70.10;;;;;;5002620;28;20046;-49
2023/10/25 06:47:29;;;;;;;6.75;2.88;;;11.10;70.10;;;;;;5000791;28;20065;-48
2023/10/25 06:49:57;;;;;;;5.20;2.65;;;11.10;70.10;;;;;;5000448;28;20080;-47
2023/10/25 06:52:26;;;;;;;5.55;2.70;;;11.10;70.10;;;;;;4996946;28;20057;-46
2023/10/25 06:54:54;;;;;;;7.13;2.70;;;11.10;70.00;;;;;;4999104;28;20054;-47
2023/10/25 06:57:22;;;;;;;5.32;2.70;;;11.10;70.00;;;;;;5002531;28;20057;-49
2023/10/25 06:59:49;;;;;;;7.30;3.25;;;11.10;69.90;;;;;;4998990;28;20068;-47
2023/10/25 07:02:30;;;;;;;5.97;2.60;;;11.10;70.00;;;;;;4999879;28;20050;-46
2023/10/25 07:05:10;;;;;;;7.10;2.90;;;11.10;69.90;;;;;;5001248;28;20549;-45
2023/10/25 07:07:39;;;;;;;5.93;2.70;;;11.20;70.00;;;;;;5001850;28;20486;-46
2023/10/25 07:10:09;;;;;;;5.63;2.40;;;11.10;70.00;;;;;;5002355;28;20050;-45
2023/10/25 07:12:36;;;;;;;6.15;2.60;;;11.10;70.20;;;;;;5001194;28;20418;-45
2023/10/25 07:15:04;;;;;;;6.40;2.40;;;11.20;70.30;;;;;;5002246;28;20052;-42
2023/10/25 07:17:31;;;;;;;4.80;2.42;;;11.20;70.40;;;;;;5001304;28;20058;-44
2023/10/25 07:19:59;;;;;;;5.15;2.20;;;11.20;70.50;;;;;;4995587;28;20061;-44
2023/10/25 07:22:27;;;;;;;5.95;2.33;;;11.20;70.60;;;;;;4998794;28;20061;-44
2023/10/25 07:24:56;;;;;;;9.07;2.88;;;11.20;70.70;;;;;;4997405;28;20049;-45
2023/10/25 07:27:24;;;;;;;7.05;2.25;;;11.30;70.80;;;;;;4997860;28;20065;-48
2023/10/25 07:29:51;;;;;;;4.20;2.35;;;11.30;70.90;;;;;;5001171;28;20509;-43
2023/10/25 07:32:18;;;;;;;6.30;2.83;;;11.40;71.70;;;;;;4997318;28;20046;-45
2023/10/25 07:34:46;;;;;;;3.15;2.38;;;11.40;70.90;;;;;;4999722;28;20422;-47
2023/10/25 07:37:13;;;;;;;5.22;2.85;;;11.40;70.90;;;;;;4998296;28;20058;-46
2023/10/25 07:39:41;;;;;;;7.03;2.65;;;11.40;70.90;;;;;;4998341;28;20061;-45
2023/10/25 07:42:09;;;;;;;6.65;2.65;;;11.50;70.90;;;;;;4997996;28;20054;-45
2023/10/25 07:44:37;;;;;;;6.45;3.33;;;11.50;71.10;;;;;;4999784;28;20056;-45
2023/10/25 07:47:04;;;;;;;4.95;3.15;;;11.60;71.20;;;;;;4997472;28;20061;-44
2023/10/25 07:49:34;;;;;;;5.40;3.03;;;11.60;71.20;;;;;;5002553;28;20058;-43
2023/10/25 07:52:02;;;;;;;4.00;2.80;;;11.60;71.30;;;;;;4999719;28;20050;-43
2023/10/25 07:54:29;;;;;;;3.97;2.80;;;11.70;71.40;;;;;;4999784;28;20065;-45
2023/10/25 07:56:56;;;;;;;8.48;3.13;;;11.70;71.30;;;;;;4999960;28;20057;-45
2023/10/25 07:59:25;;;;;;;5.90;2.80;;;11.80;71.30;;;;;;4999143;28;20053;-46
2023/10/25 08:01:52;;;;;;;4.10;2.58;;;11.80;71.20;;;;;;4998665;28;20053;-42
2023/10/25 08:04:19;;;;;;;14.80;8.30;;;11.90;71.30;;;;;;4996515;28;20062;-44
2023/10/25 08:06:47;;;;;;;17.40;8.63;;;11.90;71.10;;;;;;5000995;28;20479;-46
2023/10/25 08:09:14;;;;;;;7.85;4.30;;;11.90;71.00;;;;;;4998569;28;20053;-46
2023/10/25 08:11:41;;;;;;;5.05;3.22;;;11.90;70.90;;;;;;5000270;28;20053;-45
2023/10/25 08:14:09;;;;;;;4.88;2.85;;;12.00;70.90;;;;;;4998653;28;20535;-43
2023/10/25 08:16:39;;;;;;;4.85;2.70;;;12.00;70.80;;;;;;4999298;28;20049;-46
2023/10/25 08:19:07;;;;;;;6.45;3.55;;;12.10;70.80;;;;;;4999568;28;20058;-45
2023/10/25 08:21:35;;;;;;;6.25;2.95;;;12.10;70.70;;;;;;4998035;28;20054;-46
2023/10/25 08:24:05;;;;;;;4.72;3.17;;;12.10;71.30;;;;;;5000248;28;20430;-44
2023/10/25 08:26:35;;;;;;;4.30;3.05;;;12.10;70.60;;;;;;4999748;28;20379;-48
2023/10/25 08:29:02;;;;;;;6.75;3.30;;;12.10;70.60;;;;;;4998767;28;20054;-45
2023/10/25 08:31:30;;;;;;;6.63;3.45;;;12.10;70.50;;;;;;4997314;28;20514;-44
2023/10/25 08:33:58;;;;;;;6.03;3.17;;;12.20;70.40;;;;;;4999636;28;20053;-44
2023/10/25 08:36:28;;;;;;;6.75;3.40;;;12.20;70.40;;;;;;5000427;28;20049;-46
2023/10/25 08:38:56;;;;;;;7.30;3.60;;;12.20;70.40;;;;;;4986109;28;20052;-47
2023/10/25 08:41:26;;;;;;;6.10;3.42;;;12.20;70.30;;;;;;4999303;28;20065;-44
2023/10/25 08:43:54;;;;;;;7.30;3.85;;;12.20;70.30;;;;;;4998285;28;20049;-44
2023/10/25 08:46:22;;;;;;;7.50;3.45;;;12.30;70.40;;;;;;4998461;28;21028;-49
2023/10/25 08:48:52;;;;;;;8.95;4.15;;;12.30;70.40;;;;;;5000719;28;20585;-49
2023/10/25 08:51:21;;;;;;;7.45;4.35;;;12.30;70.50;;;;;;4999338;28;20058;-48
2023/10/25 08:53:52;;;;;;;6.43;4.22;;;12.40;70.70;;;;;;5001063;28;20450;-49
2023/10/25 08:56:19;;;;;;;11.68;4.05;;;12.40;70.70;;;;;;4997296;28;20065;-46
2023/10/25 08:58:47;;;;;;;6.50;4.32;;;12.40;70.80;;;;;;4999299;28;20050;-45
2023/10/25 09:01:14;;;;;;;8.02;4.88;;;12.40;70.80;;;;;;4997488;28;20053;-50
2023/10/25 09:03:42;;;;;;;9.00;4.97;;;12.50;70.70;;;;;;4998179;28;20085;-49
2023/10/25 09:06:11;;;;;;;6.80;4.30;;;12.50;70.60;;;;;;5000062;28;20513;-46
2023/10/25 09:08:41;;;;;;;8.90;4.90;;;12.50;70.50;;;;;;4997642;28;20060;-51
2023/10/25 09:11:10;;;;;;;10.48;4.95;;;12.60;70.50;;;;;;4996595;28;20056;-50
2023/10/25 09:13:41;;;;;;;9.32;5.07;;;12.60;70.50;;;;;;4996826;28;20058;-44
2023/10/25 09:16:09;;;;;;;11.27;5.97;;;12.60;70.60;;;;;;4998331;28;20058;-47
2023/10/25 09:18:39;;;;;;;11.77;5.53;;;12.60;70.60;;;;;;4999745;28;20061;-48
2023/10/25 09:21:08;;;;;;;12.90;7.03;;;12.60;70.50;;;;;;5001793;28;20509;-51
2023/10/25 09:23:35;;;;;;;8.70;6.00;;;12.70;70.50;;;;;;4992282;28;20046;-49
2023/10/25 09:26:14;;;;;;;12.80;7.03;;;12.70;70.50;;;;;;4995107;28;20045;-48
2023/10/25 09:28:42;;;;;;;10.07;5.90;;;12.70;70.30;;;;;;4995622;28;20060;-46
2023/10/25 09:31:21;;;;;;;9.60;6.03;;;12.70;70.40;;;;;;4997090;28;20065;-49
2023/10/25 09:33:50;;;;;;;12.95;6.78;;;12.70;70.20;;;;;;4999313;28;20057;-50
2023/10/25 09:36:19;;;;;;;9.88;6.63;;;12.80;70.20;;;;;;4996823;28;20065;-47
2023/10/25 09:38:46;;;;;;;9.13;5.90;;;12.80;70.40;;;;;;4994226;28;20064;-48
2023/10/25 09:41:17;;;;;;;7.93;4.95;;;12.80;70.20;;;;;;4999880;28;20049;-46
2023/10/25 09:43:48;;;;;;;9.02;6.22;;;12.80;70.20;;;;;;4991072;28;20045;-52
2023/10/25 09:46:17;;;;;;;9.05;6.35;;;12.90;70.20;;;;;;4997516;28;20081;-52
2023/10/25 09:48:55;;;;;;;7.13;5.65;;;12.90;70.10;;;;;;4999515;28;20423;-47
2023/10/25 09:51:35;;;;;;;9.48;6.22;;;12.90;70.20;;;;;;5000003;28;20061;-45
2023/10/25 09:54:10;;;;;;;7.50;5.53;;;12.90;70.50;;;;;;4998710;28;20062;-49
2023/10/25 09:56:40;;;;;;;7.43;4.95;;;13.00;70.50;;;;;;4999229;28;20387;-49
2023/10/25 09:59:10;;;;;;;8.05;5.15;;;13.00;70.50;;;;;;4995399;28;20058;-48
2023/10/25 10:01:39;;;;;;;8.77;5.47;;;13.00;70.50;;;;;;4994976;28;20057;-51
2023/10/25 10:04:15;;;;;;;7.88;5.45;;;13.00;71.10;;;;;;4996656;28;20066;-48
2023/10/25 10:07:00;;;;;;;8.45;5.18;;;13.00;71.20;;;;;;4992477;28;20430;-49
2023/10/25 10:09:32;;;;;;;7.95;5.32;;;13.00;70.50;;;;;;4998215;28;20490;-45
2023/10/25 10:12:05;;;;;;;11.73;5.40;;;13.10;70.50;;;;;;4999074;28;20054;-46
2023/10/25 10:14:34;;;;;;;8.85;6.05;;;13.10;70.50;;;;;;4995381;28;20057;-48
2023/10/25 10:17:06;;;;;;;7.38;5.63;;;13.10;70.50;;;;;;4994761;28;20050;-48
2023/10/25 10:19:37;;;;;;;10.70;5.65;;;13.10;70.40;;;;;;4994829;28;20064;-47
2023/10/25 10:22:09;;;;;;;9.02;5.30;;;13.10;70.30;;;;;;4995943;28;20050;-49
2023/10/25 10:24:48;;;;;;;7.97;5.60;;;13.10;70.50;;;;;;4995103;28;20061;-47
2023/10/25 10:27:18;;;;;;;7.13;5.40;;;13.10;70.60;;;;;;4997478;28;20057;-51
2023/10/25 10:29:46;;;;;;;9.20;5.53;;;13.10;70.60;;;;;;4999639;28;20577;-45
2023/10/25 10:32:14;;;;;;;8.10;5.25;;;13.10;70.60;;;;;;4999072;28;20057;-49
2023/10/25 10:34:43;;;;;;;7.45;5.32;;;13.10;70.70;;;;;;4996395;28;20090;-49
2023/10/25 10:37:12;;;;;;;8.30;5.65;;;13.10;70.80;;;;;;4997561;28;20046;-50
2023/10/25 10:40:11;;;;;;;7.55;5.13;;;13.10;70.80;;;;;;4999109;28;20046;-51
2023/10/25 10:42:40;;;;;;;7.85;5.13;;;13.10;70.90;;;;;;5000324;28;20050;-48
2023/10/25 10:45:11;;;;;;;7.35;5.20;;;13.10;70.90;;;;;;5001997;28;20061;-49
2023/10/25 10:47:41;;;;;;;7.18;4.82;;;13.20;71.10;;;;;;5000506;28;21914;-48
2023/10/25 10:50:11;;;;;;;7.07;4.95;;;13.20;71.20;;;;;;5000270;28;20520;-49
2023/10/25 10:52:39;;;;;;;6.90;5.15;;;13.20;71.20;;;;;;4999740;28;21050;-47
2023/10/25 10:55:08;;;;;;;7.85;5.35;;;13.20;71.20;;;;;;5001522;28;20495;-47
2023/10/25 10:57:36;;;;;;;7.28;4.65;;;13.20;71.90;;;;;;5000342;28;20058;-52
2023/10/25 11:00:08;;;;;;;9.45;4.93;;;13.20;71.20;;;;;;4998751;28;20514;-49
2023/10/25 11:02:36;;;;;;;6.45;4.38;;;13.20;71.20;;;;;;5001899;28;20049;-48
2023/10/25 11:05:04;;;;;;;6.50;4.47;;;13.20;71.20;;;;;;5002305;28;20065;-50
2023/10/25 11:07:31;;;;;;;6.43;4.28;;;13.20;71.20;;;;;;5000314;28;20050;-44
2023/10/25 11:09:59;;;;;;;5.85;3.78;;;13.30;71.20;;;;;;5000308;28;20121;-45
2023/10/25 11:12:26;;;;;;;5.85;4.13;;;13.20;71.20;;;;;;5003050;28;20050;-46
2023/10/25 11:14:54;;;;;;;6.93;3.95;;;13.30;71.30;;;;;;4999551;28;20057;-44
2023/10/25 11:17:23;;;;;;;8.95;4.20;;;13.30;71.30;;;;;;4999915;28;20065;-48
2023/10/25 11:19:50;;;;;;;8.13;4.03;;;13.30;71.30;;;;;;5000635;28;20428;-43
2023/10/25 11:22:17;;;;;;;5.95;3.95;;;13.20;71.20;;;;;;5001401;28;20058;-46
2023/10/25 11:24:48;;;;;;;7.15;4.28;;;13.30;71.30;;;;;;5002595;28;20053;-49
2023/10/25 11:27:16;;;;;;;10.70;3.80;;;13.30;71.50;;;;;;5001232;28;20046;-48
2023/10/25 11:29:43;;;;;;;5.93;4.10;;;13.30;71.50;;;;;;5000139;28;20065;-49
2023/10/25 11:32:14;;;;;;;5.50;3.72;;;13.30;71.60;;;;;;5000593;28;20609;-49
2023/10/25 11:34:44;;;;;;;5.30;3.40;;;13.30;71.60;;;;;;5001443;28;20049;-48
2023/10/25 11:37:12;;;;;;;4.65;3.35;;;13.30;71.60;;;;;;5002031;28;20065;-48
2023/10/25 11:39:56;;;;;;;4.78;3.65;;;13.30;71.60;;;;;;4999068;28;20551;-46
2023/10/25 11:42:23;;;;;;;8.80;3.80;;;13.30;71.80;;;;;;5001930;28;20077;-48
2023/10/25 11:44:51;;;;;;;7.15;3.83;;;13.30;71.60;;;;;;5001585;28;20049;-47
2023/10/25 11:47:18;;;;;;;4.97;3.38;;;13.30;71.70;;;;;;5000780;28;20057;-52
2023/10/25 11:49:51;;;;;;;7.60;3.17;;;13.30;71.70;;;;;;5000621;28;20057;-47
2023/10/25 11:52:21;;;;;;;5.45;3.90;;;13.30;71.90;;;;;;4999940;28;20738;-47
2023/10/25 11:54:49;;;;;;;5.25;3.47;;;13.30;72.00;;;;;;5001561;28;20058;-49
2023/10/25 11:57:17;;;;;;;4.90;3.38;;;13.30;72.00;;;;;;5003019;28;20058;-49
2023/10/25 11:59:44;;;;;;;4.68;3.42;;;13.40;72.30;;;;;;5002000;28;20056;-46
2023/10/25 12:02:12;;;;;;;6.55;3.67;;;13.40;72.40;;;;;;4997653;28;20065;-46
2023/10/25 12:04:39;;;;;;;3.90;3.00;;;13.40;72.50;;;;;;4999548;28;20054;-48
2023/10/25 12:07:07;;;;;;;6.65;4.30;;;13.40;72.60;;;;;;5000927;28;20062;-46
2023/10/25 12:09:38;;;;;;;6.38;3.28;;;13.40;72.80;;;;;;5002549;28;20058;-49
2023/10/25 12:12:06;;;;;;;9.98;3.15;;;13.40;72.70;;;;;;4998811;28;20057;-46
2023/10/25 12:14:33;;;;;;;4.13;3.35;;;13.50;72.80;;;;;;4998246;28;20062;-47
2023/10/25 12:17:00;;;;;;;3.97;3.30;;;13.50;72.60;;;;;;4999614;28;20050;-47
2023/10/25 12:19:28;;;;;;;5.15;3.05;;;13.60;72.60;;;;;;5001874;28;20518;-49
2023/10/25 12:21:57;;;;;;;4.45;2.60;;;13.60;72.50;;;;;;5001890;28;20057;-47
2023/10/25 12:24:26;;;;;;;3.42;2.80;;;13.60;72.40;;;;;;4999903;28;20058;-46
2023/10/25 12:26:54;;;;;;;4.82;2.60;;;13.60;72.40;;;;;;5000743;28;20509;-46
2023/10/25 12:29:21;;;;;;;3.60;2.58;;;13.60;72.40;;;;;;5001023;28;20513;-48
2023/10/25 12:31:48;;;;;;;3.35;2.30;;;13.60;72.30;;;;;;4996554;28;20054;-48
2023/10/25 12:34:16;;;;;;;3.22;2.40;;;13.70;71.70;;;;;;5001803;28;20061;-48
2023/10/25 12:36:43;;;;;;;3.60;2.40;;;13.70;72.20;;;;;;5002901;28;20414;-51
2023/10/25 12:39:10;;;;;;;3.67;1.90;;;13.70;72.10;;;;;;5001945;28;20057;-49
2023/10/25 12:41:39;;;;;;;2.60;1.98;;;13.70;72.10;;;;;;5001713;28;20050;-50
2023/10/25 12:44:08;;;;;;;2.63;2.20;;;13.70;72.00;;;;;;5002495;28;20050;-48
2023/10/25 12:46:35;;;;;;;3.95;2.00;;;13.70;72.10;;;;;;5000337;28;20375;-50
2023/10/25 12:49:03;;;;;;;2.53;2.05;;;13.80;72.20;;;;;;5002325;28;20064;-47